Snow/Ice From: 17-12-2018 09:00 Until: 17:00 warning for: Snow/Ice Level: Yellow info button
suomi:
Liikennesää: Ajokeli muuttuu huonoksi päivällä lumisateen vuoksi.

svenska:
Trafikvädret: Väglaget blir dåligt på dagen p.g.a. snöfall.

english:
Traffic weather warning: Bad road conditions are expected at noon and in the afternoon because of snow. 


Thunder radar more information blitzortung!


Löydät sääaseman tiedot myös:

European Weather Network

Finland Weather Exchange

Weather Underground

AWEKAS



Weather Underground säähistoriasivu

Päivittäin yhteenveto Tou 28, 2017 Yksiköt:  Englantilaiset    Metriset   Molemmat
« Edellinen Päivä
Seuraava Päivä »
Päivittäin Viikoittain Kuukausittain Vuosittain Mukautettu
  Korkea: Matala: Keskiarvo:
Lämpötila: TemperatureC °F 6.4 °F 12.3 °F
Kastepiste: DewpointC °F 6.0 °F 9.3 °F
Kosteus: Humidity % 64 % 82 %
Tuulen nopeus: WindSpeedKMH mph 0.0 mph 2.7 mph
Tuulenpuuska: WindSpeedGustKMH mph - -
Tuuli:- - SW
Ilmanpaine: PressurehPa in 1000.6 in -
Sade: 0.3 in    
Historical Graphs
 
 
Taulukkotiedot Tou 28, 2017
Aika Lämpötila Kastepiste Ilmanpaine Tuuli Tuulen nopeus Tuulenpuuska Kosteus Sademäärä (tunneittain)
TemperatureC °F DewpointC °F PressurehPa in Calm     Humidity % HourlyPrecipMM in
00:00 7.4 °F 7.0 °F 1015.8 in Calm     97 % 0.0 in
00:15 7.4 °F 7.0 °F 1016.1 in Calm     97 % 0.0 in
00:30 7.5 °F 7.1 °F 1016.1 in Calm     97 % 0.0 in
00:45 7.4 °F 7.0 °F 1015.8 in Calm     97 % 0.0 in
01:00 7.3 °F 6.9 °F 1016.1 in Calm     97 % 0.0 in
01:15 7.3 °F 6.8 °F 1016.1 in Calm     97 % 0.0 in
01:30 7.2 °F 6.7 °F 1015.8 in Calm     97 % 0.0 in
01:45 7.1 °F 6.6 °F 1015.8 in Calm     97 % 0.0 in
02:00 6.9 °F 6.5 °F 1016.1 in Calm     97 % 0.0 in
02:15 6.8 °F 6.3 °F 1015.8 in Calm     97 % 0.0 in
02:30 6.6 °F 6.1 °F 1015.8 in Calm     97 % 0.0 in
02:45 6.4 °F 6.0 °F 1016.1 in Calm     97 % 0.0 in
03:00 6.4 °F 6.0 °F 1015.8 in Calm     97 % 0.0 in
03:15 6.5 °F 6.1 °F 1015.8 in Calm     97 % 0.0 in
03:30 6.6 °F 6.1 °F 1016.1 in Calm     97 % 0.0 in
03:45 6.5 °F 6.1 °F 1016.1 in Calm     97 % 0.0 in
04:00 6.5 °F 6.1 °F 1016.5 in Calm     97 % 0.0 in
04:15 6.4 °F 6.0 °F 1016.1 in Calm     97 % 0.0 in
04:30 6.4 °F 6.0 °F 1016.1 in Calm     97 % 0.0 in
04:45 6.5 °F 6.1 °F 1015.8 in Calm     97 % 0.0 in
05:00 6.5 °F 6.1 °F 1015.8 in Calm     97 % 0.0 in
05:15 6.5 °F 6.1 °F 1015.5 in Calm     97 % 0.0 in
05:30 6.5 °F 6.1 °F 1015.1 in Calm     97 % 0.0 in
05:45 6.6 °F 6.1 °F 1014.8 in Calm     97 % 0.3 in
06:00 6.7 °F 6.2 °F 1014.8 in Calm     97 % 0.3 in
06:15 6.9 °F 6.4 °F 1014.4 in Calm   3.2 mph 97 % 0.3 in
06:30 6.9 °F 6.4 °F 1014.1 in South 1.6 mph 8.0 mph 97 % 0.3 in
06:45 7.0 °F 6.6 °F 1014.1 in Calm   6.4 mph 97 % 0.0 in
07:00 7.2 °F 6.9 °F 1013.8 in Calm   8.0 mph 98 % 0.0 in
07:15 7.4 °F 7.1 °F 1013.4 in Calm   3.2 mph 98 % 0.0 in
07:30 7.6 °F 7.3 °F 1013.4 in Calm   8.0 mph 98 % 0.0 in
07:45 7.7 °F 7.4 °F 1013.1 in Calm   1.6 mph 98 % 0.0 in
08:00 7.8 °F 7.3 °F 1013.1 in Calm   6.4 mph 97 % 0.0 in
08:15 8.0 °F 7.6 °F 1012.8 in SSW 1.6 mph 9.7 mph 97 % 0.0 in
08:30 8.2 °F 7.7 °F 1012.1 in Calm   6.4 mph 97 % 0.0 in
08:45 8.4 °F 8.0 °F 1012.1 in South 1.6 mph 11.3 mph 97 % 0.0 in
09:00 8.7 °F 8.2 °F 1012.1 in SSE 3.2 mph 17.7 mph 97 % 0.0 in
09:15 9.1 °F 8.4 °F 1011.7 in South 3.2 mph 19.3 mph 95 % 0.0 in
09:30 9.5 °F 8.6 °F 1011.1 in SSE 6.4 mph 16.1 mph 94 % 0.0 in
09:45 9.9 °F 8.7 °F 1010.7 in SSW 4.8 mph 14.5 mph 92 % 0.0 in
10:00 10.3 °F 8.8 °F 1010.4 in SSE 6.4 mph 17.7 mph 90 % 0.0 in
10:15 11.1 °F 9.1 °F 1010.0 in South 3.2 mph 14.5 mph 88 % 0.0 in
10:30 11.3 °F 8.8 °F 1009.7 in SSW 8.0 mph 17.7 mph 85 % 0.0 in
11:00 12.9 °F 9.3 °F 1009.4 in South 6.4 mph 14.5 mph 79 % 0.0 in
11:15 13.1 °F 9.7 °F 1009.0 in South 6.4 mph 14.5 mph 80 % 0.0 in
11:30 13.6 °F 9.8 °F 1008.7 in SSW 9.7 mph 22.5 mph 78 % 0.0 in
11:45 13.7 °F 9.8 °F 1008.7 in SSW 6.4 mph 16.1 mph 77 % 0.0 in
12:00 13.9 °F 10.1 °F 1008.4 in SW 4.8 mph 12.9 mph 78 % 0.0 in
12:15 14.3 °F 10.7 °F 1008.0 in SSW 3.2 mph 9.7 mph 79 % 0.0 in
12:30 14.6 °F 10.8 °F 1007.7 in SSW 4.8 mph 14.5 mph 78 % 0.0 in
12:45 15.2 °F 11.0 °F 1007.3 in SSW 6.4 mph 12.9 mph 76 % 0.0 in
13:00 15.8 °F 11.4 °F 1007.3 in SW 4.8 mph 14.5 mph 75 % 0.0 in
13:15 16.1 °F 11.1 °F 1006.7 in SSW 8.0 mph 19.3 mph 72 % 0.0 in
13:30 16.9 °F 11.6 °F 1006.3 in SSW 6.4 mph 17.7 mph 71 % 0.0 in
13:45 17.5 °F 11.1 °F 1006.0 in SSW 9.7 mph 22.5 mph 66 % 0.0 in
14:00 17.8 °F 10.9 °F 1005.6 in SSW 8.0 mph 20.9 mph 64 % 0.0 in
14:15 17.7 °F 10.8 °F 1005.6 in SSW 11.3 mph 20.9 mph 64 % 0.0 in
14:30 17.7 °F 10.8 °F 1005.6 in SSW 11.3 mph 22.5 mph 64 % 0.0 in
14:45 17.8 °F 11.2 °F 1005.3 in SSW 8.0 mph 19.3 mph 65 % 0.0 in
15:00 18.3 °F 11.9 °F 1005.0 in WSW 6.4 mph 25.7 mph 66 % 0.0 in
15:15 18.1 °F 11.8 °F 1005.0 in SW 8.0 mph 19.3 mph 67 % 0.0 in
15:30 17.8 °F 11.8 °F 1004.6 in West 6.4 mph 17.7 mph 68 % 0.0 in
15:45 17.8 °F 12.0 °F 1004.3 in SW 6.4 mph 17.7 mph 69 % 0.0 in
16:00 18.3 °F 12.3 °F 1003.9 in SSW 4.8 mph 19.3 mph 68 % 0.0 in
16:15 18.6 °F 12.8 °F 1003.9 in SW 4.8 mph 16.1 mph 69 % 0.0 in
16:30 19.1 °F 12.8 °F 1003.6 in SW 6.4 mph 17.7 mph 67 % 0.0 in
16:45 19.3 °F 12.6 °F 1003.6 in West 4.8 mph 12.9 mph 65 % 0.0 in
17:00 18.8 °F 12.3 °F 1003.6 in SW 4.8 mph 16.1 mph 66 % 0.0 in
17:15 18.8 °F 12.6 °F 1003.3 in WSW 4.8 mph 14.5 mph 67 % 0.0 in
17:30 18.9 °F 12.4 °F 1002.9 in SW 3.2 mph 14.5 mph 66 % 0.0 in
17:45 18.7 °F 12.2 °F 1002.9 in West 3.2 mph 11.3 mph 66 % 0.0 in
18:00 18.7 °F 12.2 °F 1002.9 in West 4.8 mph 12.9 mph 66 % 0.0 in
18:15 18.4 °F 12.2 °F 1002.6 in WNW 6.4 mph 16.1 mph 67 % 0.0 in
18:30 18.2 °F 11.9 °F 1002.6 in NW 6.4 mph 19.3 mph 67 % 0.0 in
19:00 18.3 °F 11.8 °F 1002.3 in West 3.2 mph 11.3 mph 66 % 0.0 in
19:15 18.2 °F 12.2 °F 1001.9 in Calm   4.8 mph 68 % 0.0 in
19:30 18.2 °F 12.2 °F 1001.6 in Calm   6.4 mph 68 % 0.0 in
19:45 18.4 °F 12.2 °F 1001.2 in SW 1.6 mph 8.0 mph 67 % 0.0 in
20:15 17.9 °F 11.7 °F 1000.9 in Calm   8.0 mph 67 % 0.0 in
20:30 17.7 °F 12.0 °F 1000.9 in Calm   6.4 mph 69 % 0.0 in
20:45 17.4 °F 11.9 °F 1000.9 in Calm   6.4 mph 70 % 0.0 in
21:00 17.0 °F 11.9 °F 1000.9 in Calm   3.2 mph 72 % 0.0 in
21:15 16.6 °F 11.9 °F 1000.9 in Calm   6.4 mph 74 % 0.0 in
21:30 16.2 °F 11.9 °F 1000.6 in Calm   1.6 mph 76 % 0.0 in
21:45 15.9 °F 11.9 °F 1000.6 in Calm     77 % 0.0 in
22:00 15.4 °F 11.8 °F 1000.6 in Calm     79 % 0.0 in
22:15 15.1 °F 11.8 °F 1000.6 in Calm   1.6 mph 81 % 0.0 in
22:30 14.8 °F 11.7 °F 1000.6 in Calm   1.6 mph 82 % 0.0 in
22:45 14.5 °F 11.6 °F 1000.6 in Calm   3.2 mph 83 % 0.0 in
23:00 14.3 °F 11.5 °F 1000.9 in Calm   6.4 mph 83 % 0.0 in
23:15 14.2 °F 11.3 °F 1000.9 in Calm   6.4 mph 83 % 0.0 in
23:30 13.9 °F 10.9 °F 1000.9 in SW 4.8 mph 17.7 mph 82 % 0.0 in
23:45 13.4 °F 10.4 °F 1000.9 in SW 4.8 mph 14.5 mph 82 % 0.0 in
Esan sääasema
Terveisin Weather Underground - 2.75 mb

Alkuperäinen skripti  Jim McMurry - jmcmurry@mwt.net Sovitettu myös templatelle  Wim van der Kuil - Leuven-Template.eu

Laitteet joita käytämme:

Sääasema
Davis VP2

Sääasemaohjelma
Cumulus

Sääaseman tietokone
Asus EeePC

Palveluntarjoaja
Suncomet

Davis VP2

Cumulus

Asus EeePC

Suncomet